sensor_id;sensor_type;location;lat;lon;timestamp;pressure;altitude;pressure_sealevel;temperature;humidity
69751;BME280;57335;52.288;6.056;2023-05-22T00:01:10;101546.97;;;17.29;100.00
69751;BME280;57335;52.288;6.056;2023-05-22T00:03:36;101550.09;;;17.26;100.00
69751;BME280;57335;52.288;6.056;2023-05-22T00:06:03;101539.38;;;17.21;100.00
69751;BME280;57335;52.288;6.056;2023-05-22T00:08:29;101534.56;;;17.18;100.00
69751;BME280;57335;52.288;6.056;2023-05-22T00:10:56;101516.25;;;17.17;100.00
69751;BME280;57335;52.288;6.056;2023-05-22T00:13:22;101525.69;;;17.24;100.00
69751;BME280;57335;52.288;6.056;2023-05-22T00:15:48;101516.69;;;17.25;100.00
69751;BME280;57335;52.288;6.056;2023-05-22T00:18:15;101517.75;;;17.24;100.00
69751;BME280;57335;52.288;6.056;2023-05-22T00:20:41;101533.50;;;17.31;100.00
69751;BME280;57335;52.288;6.056;2023-05-22T00:23:08;101539.38;;;17.33;100.00
69751;BME280;57335;52.288;6.056;2023-05-22T00:25:35;101533.50;;;17.31;100.00
69751;BME280;57335;52.288;6.056;2023-05-22T00:28:02;101522.56;;;17.27;100.00
69751;BME280;57335;52.288;6.056;2023-05-22T00:30:28;101519.44;;;17.30;100.00
69751;BME280;57335;52.288;6.056;2023-05-22T00:32:55;101519.22;;;17.32;100.00
69751;BME280;57335;52.288;6.056;2023-05-22T00:35:21;101504.59;;;17.29;100.00
69751;BME280;57335;52.288;6.056;2023-05-22T00:37:48;101505.97;;;17.32;100.00
69751;BME280;57335;52.288;6.056;2023-05-22T00:40:14;101505.72;;;17.33;100.00
69751;BME280;57335;52.288;6.056;2023-05-22T00:42:43;101494.47;;;17.26;100.00
69751;BME280;57335;52.288;6.056;2023-05-22T00:45:10;101495.25;;;17.27;100.00
69751;BME280;57335;52.288;6.056;2023-05-22T00:47:37;101494.47;;;17.26;100.00
69751;BME280;57335;52.288;6.056;2023-05-22T00:50:04;101489.16;;;17.26;100.00
69751;BME280;57335;52.288;6.056;2023-05-22T00:52:33;101497.19;;;17.31;100.00
69751;BME280;57335;52.288;6.056;2023-05-22T00:55:01;101488.13;;;17.27;100.00
69751;BME280;57335;52.288;6.056;2023-05-22T00:57:28;101485.47;;;17.27;100.00
69751;BME280;57335;52.288;6.056;2023-05-22T00:59:55;101475.81;;;17.21;100.00
69751;BME280;57335;52.288;6.056;2023-05-22T01:02:22;101476.16;;;17.25;100.00
69751;BME280;57335;52.288;6.056;2023-05-22T01:04:49;101469.38;;;17.17;100.00
69751;BME280;57335;52.288;6.056;2023-05-22T01:07:16;101460.78;;;17.10;100.00
69751;BME280;57335;52.288;6.056;2023-05-22T01:09:43;101478.38;;;17.16;100.00
69751;BME280;57335;52.288;6.056;2023-05-22T01:12:19;101474.09;;;17.15;100.00
69751;BME280;57335;52.288;6.056;2023-05-22T01:15:05;101474.09;;;17.15;100.00
69751;BME280;57335;52.288;6.056;2023-05-22T01:17:56;101460.28;;;17.13;100.00
69751;BME280;57335;52.288;6.056;2023-05-22T01:20:31;101469.84;;;17.14;100.00
69751;BME280;57335;52.288;6.056;2023-05-22T01:29:27;101462.25;;;17.06;100.00
69751;BME280;57335;52.288;6.056;2023-05-22T01:31:49;101461.47;;;16.93;100.00
69751;BME280;57335;52.288;6.056;2023-05-22T01:34:18;101451.13;;;16.92;100.00
69751;BME280;57335;52.288;6.056;2023-05-22T01:36:47;101462.53;;;16.92;100.00
69751;BME280;57335;52.288;6.056;2023-05-22T01:39:17;101464.25;;;16.87;100.00
69751;BME280;57335;52.288;6.056;2023-05-22T01:41:43;101457.38;;;16.86;100.00
69751;BME280;57335;52.288;6.056;2023-05-22T01:44:10;101448.03;;;16.83;100.00
69751;BME280;57335;52.288;6.056;2023-05-22T01:46:37;101450.44;;;16.85;100.00
69751;BME280;57335;52.288;6.056;2023-05-22T01:49:03;101447.22;;;16.83;100.00
69751;BME280;57335;52.288;6.056;2023-05-22T01:51:52;101447.44;;;16.81;100.00
69751;BME280;57335;52.288;6.056;2023-05-22T01:54:38;101439.03;;;16.72;100.00
69751;BME280;57335;52.288;6.056;2023-05-22T01:57:37;101442.41;;;16.68;100.00
69751;BME280;57335;52.288;6.056;2023-05-22T02:00:11;101436.53;;;16.66;100.00
69751;BME280;57335;52.288;6.056;2023-05-22T02:02:39;101436.97;;;16.63;100.00
69751;BME280;57335;52.288;6.056;2023-05-22T02:05:09;101431.91;;;16.61;100.00
69751;BME280;57335;52.288;6.056;2023-05-22T02:07:37;101426.75;;;16.54;100.00
69751;BME280;57335;52.288;6.056;2023-05-22T02:10:06;101437.09;;;16.56;100.00
69751;BME280;57335;52.288;6.056;2023-05-22T02:12:33;101433.63;;;16.55;100.00
69751;BME280;57335;52.288;6.056;2023-05-22T02:15:00;101431.25;;;16.54;100.00
69751;BME280;57335;52.288;6.056;2023-05-22T02:17:27;101435.72;;;16.53;100.00
69751;BME280;57335;52.288;6.056;2023-05-22T02:19:53;101425.03;;;16.48;100.00
69751;BME280;57335;52.288;6.056;2023-05-22T02:22:20;101436.19;;;16.50;100.00
69751;BME280;57335;52.288;6.056;2023-05-22T02:24:47;101432.84;;;16.43;100.00
69751;BME280;57335;52.288;6.056;2023-05-22T02:27:13;101434.69;;;16.43;100.00
69751;BME280;57335;52.288;6.056;2023-05-22T02:29:40;101447.13;;;16.42;100.00
69751;BME280;57335;52.288;6.056;2023-05-22T02:32:06;101436.31;;;16.32;100.00
69751;BME280;57335;52.288;6.056;2023-05-22T02:34:33;101437.09;;;16.32;100.00
69751;BME280;57335;52.288;6.056;2023-05-22T02:37:00;101446.31;;;16.30;100.00
69751;BME280;57335;52.288;6.056;2023-05-22T02:39:26;101434.44;;;16.21;100.00
69751;BME280;57335;52.288;6.056;2023-05-22T02:41:52;101431.22;;;16.19;100.00
69751;BME280;57335;52.288;6.056;2023-05-22T02:44:19;101441.44;;;16.15;100.00
69751;BME280;57335;52.288;6.056;2023-05-22T02:46:45;101435.69;;;16.06;100.00
69751;BME280;57335;52.288;6.056;2023-05-22T02:49:13;101413.16;;;15.92;100.00
69751;BME280;57335;52.288;6.056;2023-05-22T02:51:39;101418.66;;;15.90;100.00
69751;BME280;57335;52.288;6.056;2023-05-22T02:54:06;101420.38;;;15.85;100.00
69751;BME280;57335;52.288;6.056;2023-05-22T02:56:32;101427.72;;;15.83;100.00
69751;BME280;57335;52.288;6.056;2023-05-22T02:58:58;101425.41;;;15.74;100.00
69751;BME280;57335;52.288;6.056;2023-05-22T03:01:25;101415.47;;;15.70;100.00
69751;BME280;57335;52.288;6.056;2023-05-22T03:03:51;101407.06;;;15.61;100.00
69751;BME280;57335;52.288;6.056;2023-05-22T03:06:18;101418.56;;;15.67;100.00
69751;BME280;57335;52.288;6.056;2023-05-22T03:08:44;101400.03;;;15.55;100.00
69751;BME280;57335;52.288;6.056;2023-05-22T03:11:11;101400.13;;;15.48;100.00
69751;BME280;57335;52.288;6.056;2023-05-22T03:13:37;101417.34;;;15.51;100.00
69751;BME280;57335;52.288;6.056;2023-05-22T03:16:04;101412.75;;;15.46;100.00
69751;BME280;57335;52.288;6.056;2023-05-22T03:18:30;101419.44;;;15.49;100.00
69751;BME280;57335;52.288;6.056;2023-05-22T03:20:57;101413.66;;;15.40;100.00
69751;BME280;57335;52.288;6.056;2023-05-22T03:23:23;101424.22;;;15.40;100.00
69751;BME280;57335;52.288;6.056;2023-05-22T03:25:49;101416.41;;;15.33;100.00
69751;BME280;57335;52.288;6.056;2023-05-22T03:28:16;101416.03;;;15.30;100.00
69751;BME280;57335;52.288;6.056;2023-05-22T03:30:42;101413.03;;;15.26;100.00
69751;BME280;57335;52.288;6.056;2023-05-22T03:33:09;101415.19;;;15.29;100.00
69751;BME280;57335;52.288;6.056;2023-05-22T03:35:35;101401.16;;;15.17;100.00
69751;BME280;57335;52.288;6.056;2023-05-22T03:38:02;101409.22;;;15.22;100.00
69751;BME280;57335;52.288;6.056;2023-05-22T03:40:28;101415.88;;;15.25;100.00
69751;BME280;57335;52.288;6.056;2023-05-22T03:42:54;101403.00;;;15.16;100.00
69751;BME280;57335;52.288;6.056;2023-05-22T03:45:21;101403.78;;;15.17;100.00
69751;BME280;57335;52.288;6.056;2023-05-22T03:47:48;101404.69;;;15.11;100.00
69751;BME280;57335;52.288;6.056;2023-05-22T03:50:14;101401.44;;;15.09;100.00
69751;BME280;57335;52.288;6.056;2023-05-22T03:52:41;101420.97;;;15.08;100.00
69751;BME280;57335;52.288;6.056;2023-05-22T03:55:07;101423.69;;;15.01;100.00
69751;BME280;57335;52.288;6.056;2023-05-22T03:57:34;101420.75;;;14.91;100.00
69751;BME280;57335;52.288;6.056;2023-05-22T04:00:00;101426.53;;;14.81;100.00
69751;BME280;57335;52.288;6.056;2023-05-22T04:02:26;101428.00;;;14.77;100.00
69751;BME280;57335;52.288;6.056;2023-05-22T04:04:53;101431.31;;;14.72;100.00
69751;BME280;57335;52.288;6.056;2023-05-22T04:07:19;101427.88;;;14.72;100.00
69751;BME280;57335;52.288;6.056;2023-05-22T04:09:46;101433.53;;;14.75;100.00
69751;BME280;57335;52.288;6.056;2023-05-22T04:12:12;101425.44;;;14.70;100.00
69751;BME280;57335;52.288;6.056;2023-05-22T04:14:38;101429.47;;;14.73;100.00
69751;BME280;57335;52.288;6.056;2023-05-22T04:17:05;101431.75;;;14.69;100.00
69751;BME280;57335;52.288;6.056;2023-05-22T04:19:31;101428.28;;;14.69;100.00
69751;BME280;57335;52.288;6.056;2023-05-22T04:21:58;101424.63;;;14.70;100.00
69751;BME280;57335;52.288;6.056;2023-05-22T04:24:24;101432.34;;;14.71;100.00
69751;BME280;57335;52.288;6.056;2023-05-22T04:26:51;101424.84;;;14.68;100.00
69751;BME280;57335;52.288;6.056;2023-05-22T04:29:17;101430.94;;;14.69;100.00
69751;BME280;57335;52.288;6.056;2023-05-22T04:31:43;101417.34;;;14.65;100.00
69751;BME280;57335;52.288;6.056;2023-05-22T04:34:10;101434.41;;;14.69;100.00
69751;BME280;57335;52.288;6.056;2023-05-22T04:36:37;101432.78;;;14.68;100.00
69751;BME280;57335;52.288;6.056;2023-05-22T04:39:03;101429.47;;;14.73;100.00
69751;BME280;57335;52.288;6.056;2023-05-22T04:41:30;101429.47;;;14.73;100.00
69751;BME280;57335;52.288;6.056;2023-05-22T04:43:56;101423.75;;;14.76;100.00
69751;BME280;57335;52.288;6.056;2023-05-22T04:46:23;101427.94;;;14.84;100.00
69751;BME280;57335;52.288;6.056;2023-05-22T04:48:49;101417.16;;;14.85;100.00
69751;BME280;57335;52.288;6.056;2023-05-22T04:51:15;101419.94;;;14.90;100.00
69751;BME280;57335;52.288;6.056;2023-05-22T04:53:42;101441.25;;;15.07;100.00
69751;BME280;57335;52.288;6.056;2023-05-22T04:56:08;101429.25;;;15.11;100.00
69751;BME280;57335;52.288;6.056;2023-05-22T04:58:35;101441.28;;;15.26;100.00
69751;BME280;57335;52.288;6.056;2023-05-22T05:01:01;101433.41;;;15.38;100.00
69751;BME280;57335;52.288;6.056;2023-05-22T05:03:27;101417.00;;;15.47;100.00
69751;BME280;57335;52.288;6.056;2023-05-22T05:05:54;101426.28;;;15.68;100.00
69751;BME280;57335;52.288;6.056;2023-05-22T05:08:20;101430.72;;;15.86;100.00
69751;BME280;57335;52.288;6.056;2023-05-22T05:10:47;101424.88;;;15.96;100.00
69751;BME280;57335;52.288;6.056;2023-05-22T05:13:13;101420.19;;;16.10;100.00
69751;BME280;57335;52.288;6.056;2023-05-22T05:15:39;101421.22;;;16.21;100.00
69751;BME280;57335;52.288;6.056;2023-05-22T05:18:06;101429.53;;;16.48;100.00
69751;BME280;57335;52.288;6.056;2023-05-22T05:20:32;101431.34;;;16.59;100.00
69751;BME280;57335;52.288;6.056;2023-05-22T05:22:59;101433.53;;;16.86;100.00
69751;BME280;57335;52.288;6.056;2023-05-22T05:25:25;101437.78;;;17.27;100.00
69751;BME280;57335;52.288;6.056;2023-05-22T05:27:51;101438.03;;;17.54;100.00
69751;BME280;57335;52.288;6.056;2023-05-22T05:30:18;101419.94;;;17.80;100.00
69751;BME280;57335;52.288;6.056;2023-05-22T05:32:46;101443.00;;;18.13;100.00
69751;BME280;57335;52.288;6.056;2023-05-22T05:35:12;101436.09;;;18.29;100.00
69751;BME280;57335;52.288;6.056;2023-05-22T05:37:38;101443.53;;;18.49;100.00
69751;BME280;57335;52.288;6.056;2023-05-22T05:40:05;101449.44;;;18.90;100.00
69751;BME280;57335;52.288;6.056;2023-05-22T05:42:32;101444.47;;;19.21;99.13
69751;BME280;57335;52.288;6.056;2023-05-22T05:44:58;101445.72;;;19.63;99.94
69751;BME280;57335;52.288;6.056;2023-05-22T05:47:24;101453.34;;;20.13;94.06
69751;BME280;57335;52.288;6.056;2023-05-22T05:49:51;101460.16;;;20.37;91.13
69751;BME280;57335;52.288;6.056;2023-05-22T05:52:17;101458.28;;;20.37;89.67
69751;BME280;57335;52.288;6.056;2023-05-22T05:54:44;101462.84;;;20.42;90.32
69751;BME280;57335;52.288;6.056;2023-05-22T05:57:10;101460.53;;;20.56;91.29
69751;BME280;57335;52.288;6.056;2023-05-22T05:59:37;101455.38;;;20.81;87.64
69751;BME280;57335;52.288;6.056;2023-05-22T06:02:03;101456.47;;;20.90;87.10
69751;BME280;57335;52.288;6.056;2023-05-22T06:04:30;101460.38;;;20.72;87.22
69751;BME280;57335;52.288;6.056;2023-05-22T06:06:56;101456.25;;;20.55;89.43
69751;BME280;57335;52.288;6.056;2023-05-22T06:09:22;101457.44;;;20.31;91.12
69751;BME280;57335;52.288;6.056;2023-05-22T06:11:49;101460.97;;;20.37;91.34
69751;BME280;57335;52.288;6.056;2023-05-22T06:14:15;101459.31;;;20.74;90.93
69751;BME280;57335;52.288;6.056;2023-05-22T06:16:42;101455.25;;;21.24;87.84
69751;BME280;57335;52.288;6.056;2023-05-22T06:19:09;101467.13;;;21.84;85.63
69751;BME280;57335;52.288;6.056;2023-05-22T06:21:35;101468.97;;;22.20;82.44
69751;BME280;57335;52.288;6.056;2023-05-22T06:24:02;101468.41;;;22.54;81.40
69751;BME280;57335;52.288;6.056;2023-05-22T06:26:28;101474.22;;;22.76;78.58
69751;BME280;57335;52.288;6.056;2023-05-22T06:28:55;101462.44;;;22.87;78.33
69751;BME280;57335;52.288;6.056;2023-05-22T06:31:21;101468.19;;;23.25;77.10
69751;BME280;57335;52.288;6.056;2023-05-22T06:33:48;101464.91;;;23.78;79.09
69751;BME280;57335;52.288;6.056;2023-05-22T06:36:14;101470.09;;;24.28;73.55
69751;BME280;57335;52.288;6.056;2023-05-22T06:38:41;101468.94;;;24.63;71.80
69751;BME280;57335;52.288;6.056;2023-05-22T06:41:07;101464.31;;;24.69;70.73
69751;BME280;57335;52.288;6.056;2023-05-22T06:43:34;101475.00;;;24.74;71.28
69751;BME280;57335;52.288;6.056;2023-05-22T06:46:00;101479.44;;;24.84;69.95
69751;BME280;57335;52.288;6.056;2023-05-22T06:48:26;101478.94;;;25.01;69.71
69751;BME280;57335;52.288;6.056;2023-05-22T06:50:53;101486.91;;;25.30;70.83
69751;BME280;57335;52.288;6.056;2023-05-22T06:53:19;101473.88;;;25.42;68.97
69751;BME280;57335;52.288;6.056;2023-05-22T06:55:46;101470.06;;;25.43;68.11
69751;BME280;57335;52.288;6.056;2023-05-22T06:58:12;101478.63;;;25.45;67.51
69751;BME280;57335;52.288;6.056;2023-05-22T07:00:38;101479.50;;;25.41;67.56
69751;BME280;57335;52.288;6.056;2023-05-22T07:03:05;101477.53;;;25.65;67.28
69751;BME280;57335;52.288;6.056;2023-05-22T07:05:32;101487.53;;;25.79;67.30
69751;BME280;57335;52.288;6.056;2023-05-22T07:07:58;101480.41;;;25.88;66.87
69751;BME280;57335;52.288;6.056;2023-05-22T07:10:25;101489.47;;;26.25;66.13
69751;BME280;57335;52.288;6.056;2023-05-22T07:12:51;101483.41;;;26.33;65.97
69751;BME280;57335;52.288;6.056;2023-05-22T07:15:18;101490.97;;;26.31;64.03
69751;BME280;57335;52.288;6.056;2023-05-22T07:17:44;101493.63;;;26.17;65.90
69751;BME280;57335;52.288;6.056;2023-05-22T07:20:11;101500.16;;;25.97;66.22
69751;BME280;57335;52.288;6.056;2023-05-22T07:22:37;101483.28;;;25.59;66.95
69751;BME280;57335;52.288;6.056;2023-05-22T07:25:04;101491.56;;;25.19;69.00
69751;BME280;57335;52.288;6.056;2023-05-22T07:27:30;101503.06;;;24.82;70.23
69751;BME280;57335;52.288;6.056;2023-05-22T07:29:57;101499.03;;;24.55;72.82
69751;BME280;57335;52.288;6.056;2023-05-22T07:32:23;101486.78;;;24.20;71.53
69751;BME280;57335;52.288;6.056;2023-05-22T07:34:50;101477.69;;;23.86;72.85
69751;BME280;57335;52.288;6.056;2023-05-22T07:37:16;101494.66;;;23.66;74.06
69751;BME280;57335;52.288;6.056;2023-05-22T07:39:43;101488.94;;;23.39;76.43
69751;BME280;57335;52.288;6.056;2023-05-22T07:42:09;101501.78;;;23.37;75.55
69751;BME280;57335;52.288;6.056;2023-05-22T07:44:35;101490.38;;;23.26;76.79
69751;BME280;57335;52.288;6.056;2023-05-22T07:47:02;101489.00;;;23.28;77.42
69751;BME280;57335;52.288;6.056;2023-05-22T07:49:29;101496.00;;;23.19;74.08
69751;BME280;57335;52.288;6.056;2023-05-22T07:51:55;101498.75;;;22.94;77.32
69751;BME280;57335;52.288;6.056;2023-05-22T07:54:21;101504.19;;;22.68;78.87
69751;BME280;57335;52.288;6.056;2023-05-22T07:56:48;101506.91;;;22.47;78.90
69751;BME280;57335;52.288;6.056;2023-05-22T07:59:14;101507.72;;;22.38;79.80
69751;BME280;57335;52.288;6.056;2023-05-22T08:01:41;101511.72;;;22.30;81.67
69751;BME280;57335;52.288;6.056;2023-05-22T08:04:07;101503.16;;;22.02;81.20
69751;BME280;57335;52.288;6.056;2023-05-22T08:06:34;101512.50;;;22.10;83.98
69751;BME280;57335;52.288;6.056;2023-05-22T08:09:01;101518.38;;;22.17;84.32
69751;BME280;57335;52.288;6.056;2023-05-22T08:11:28;101517.56;;;22.22;85.68
69751;BME280;57335;52.288;6.056;2023-05-22T08:13:55;101519.19;;;22.18;82.40
69751;BME280;57335;52.288;6.056;2023-05-22T08:16:22;101522.91;;;22.22;83.18
69751;BME280;57335;52.288;6.056;2023-05-22T08:18:48;101510.63;;;22.05;84.21
69751;BME280;57335;52.288;6.056;2023-05-22T08:21:17;101530.63;;;21.92;86.19
69751;BME280;57335;52.288;6.056;2023-05-22T08:23:44;101522.09;;;21.90;86.25
69751;BME280;57335;52.288;6.056;2023-05-22T08:26:10;101508.97;;;21.53;86.11
69751;BME280;57335;52.288;6.056;2023-05-22T08:28:37;101524.69;;;21.55;87.30
69751;BME280;57335;52.288;6.056;2023-05-22T08:31:03;101523.09;;;21.54;88.62
69751;BME280;57335;52.288;6.056;2023-05-22T08:33:30;101524.44;;;21.56;87.92
69751;BME280;57335;52.288;6.056;2023-05-22T08:35:56;101516.16;;;21.58;86.78
69751;BME280;57335;52.288;6.056;2023-05-22T08:38:22;101521.00;;;21.71;88.83
69751;BME280;57335;52.288;6.056;2023-05-22T08:40:49;101523.41;;;21.73;87.88
69751;BME280;57335;52.288;6.056;2023-05-22T08:43:19;101519.66;;;21.63;87.21
69751;BME280;57335;52.288;6.056;2023-05-22T08:45:51;101529.00;;;21.66;85.92
69751;BME280;57335;52.288;6.056;2023-05-22T08:48:22;101515.34;;;21.52;86.51
69751;BME280;57335;52.288;6.056;2023-05-22T08:50:53;101516.16;;;21.58;89.37
69751;BME280;57335;52.288;6.056;2023-05-22T08:53:20;101517.53;;;21.76;86.21
69751;BME280;57335;52.288;6.056;2023-05-22T08:55:47;101526.34;;;21.76;84.24
69751;BME280;57335;52.288;6.056;2023-05-22T08:58:14;101526.09;;;21.88;84.37
69751;BME280;57335;52.288;6.056;2023-05-22T09:00:40;101528.50;;;22.05;80.83
69751;BME280;57335;52.288;6.056;2023-05-22T09:03:07;101519.97;;;22.18;79.92
69751;BME280;57335;52.288;6.056;2023-05-22T09:05:34;101513.84;;;22.38;81.24
69751;BME280;57335;52.288;6.056;2023-05-22T09:08:02;101510.88;;;22.60;78.78
69751;BME280;57335;52.288;6.056;2023-05-22T09:10:44;101506.59;;;22.64;77.46
69751;BME280;57335;52.288;6.056;2023-05-22T09:13:23;101506.81;;;22.78;77.24
69751;BME280;57335;52.288;6.056;2023-05-22T09:15:49;101510.50;;;23.08;82.02
69751;BME280;57335;52.288;6.056;2023-05-22T09:18:16;101506.16;;;23.22;79.61
69751;BME280;57335;52.288;6.056;2023-05-22T09:20:42;101507.19;;;23.32;76.64
69751;BME280;57335;52.288;6.056;2023-05-22T09:23:13;101504.75;;;23.35;73.24
69751;BME280;57335;52.288;6.056;2023-05-22T09:25:40;101508.44;;;23.44;75.64
69751;BME280;57335;52.288;6.056;2023-05-22T09:28:07;101505.03;;;23.73;78.62
69751;BME280;57335;52.288;6.056;2023-05-22T09:30:33;101501.53;;;23.83;71.55
69751;BME280;57335;52.288;6.056;2023-05-22T09:33:00;101501.94;;;24.00;74.93
69751;BME280;57335;52.288;6.056;2023-05-22T09:35:27;101501.78;;;23.86;72.09
69751;BME280;57335;52.288;6.056;2023-05-22T09:37:57;101496.28;;;23.67;72.28
69751;BME280;57335;52.288;6.056;2023-05-22T09:40:25;101500.50;;;23.79;72.49
69751;BME280;57335;52.288;6.056;2023-05-22T09:42:52;101494.59;;;23.77;72.96
69751;BME280;57335;52.288;6.056;2023-05-22T09:45:20;101504.13;;;23.93;70.51
69751;BME280;57335;52.288;6.056;2023-05-22T09:47:47;101498.28;;;24.20;70.36
69751;BME280;57335;52.288;6.056;2023-05-22T09:50:14;101500.94;;;24.55;72.74
69751;BME280;57335;52.288;6.056;2023-05-22T09:52:43;101502.22;;;24.81;69.13
69751;BME280;57335;52.288;6.056;2023-05-22T09:55:12;101499.38;;;24.97;68.71
69751;BME280;57335;52.288;6.056;2023-05-22T09:57:43;101487.59;;;24.98;69.56
69751;BME280;57335;52.288;6.056;2023-05-22T10:00:14;101497.06;;;24.90;66.18
69751;BME280;57335;52.288;6.056;2023-05-22T10:02:43;101483.78;;;24.80;65.71
69751;BME280;57335;52.288;6.056;2023-05-22T10:05:10;101486.28;;;24.71;67.43
69751;BME280;57335;52.288;6.056;2023-05-22T10:07:44;101490.16;;;24.60;69.58
69751;BME280;57335;52.288;6.056;2023-05-22T10:10:13;101488.16;;;24.71;68.40
69751;BME280;57335;52.288;6.056;2023-05-22T10:12:43;101482.75;;;24.76;68.78
69751;BME280;57335;52.288;6.056;2023-05-22T10:15:13;101479.22;;;24.80;68.06
69751;BME280;57335;52.288;6.056;2023-05-22T10:17:40;101487.97;;;25.10;69.86
69751;BME280;57335;52.288;6.056;2023-05-22T10:20:07;101486.84;;;25.35;65.40
69751;BME280;57335;52.288;6.056;2023-05-22T10:22:35;101474.56;;;25.29;65.35
69751;BME280;57335;52.288;6.056;2023-05-22T10:25:02;101469.06;;;25.39;64.42
69751;BME280;57335;52.288;6.056;2023-05-22T10:27:29;101471.31;;;25.51;68.90
69751;BME280;57335;52.288;6.056;2023-05-22T10:32:38;101472.94;;;26.32;61.96
69751;BME280;57335;52.288;6.056;2023-05-22T10:35:18;101465.50;;;26.56;65.51
69751;BME280;57335;52.288;6.056;2023-05-22T10:37:54;101459.56;;;26.73;63.82
69751;BME280;57335;52.288;6.056;2023-05-22T10:40:29;101470.72;;;26.66;61.46
69751;BME280;57335;52.288;6.056;2023-05-22T10:42:58;101456.56;;;26.61;63.56
69751;BME280;57335;52.288;6.056;2023-05-22T10:45:27;101458.06;;;26.67;61.34
69751;BME280;57335;52.288;6.056;2023-05-22T10:48:07;101467.41;;;26.70;62.20
69751;BME280;57335;52.288;6.056;2023-05-22T10:50:34;101458.81;;;26.40;60.67
69751;BME280;57335;52.288;6.056;2023-05-22T10:53:18;101457.81;;;26.36;60.12
69751;BME280;57335;52.288;6.056;2023-05-22T10:55:49;101452.44;;;26.36;61.97
69751;BME280;57335;52.288;6.056;2023-05-22T10:58:16;101468.91;;;26.48;62.95
69751;BME280;57335;52.288;6.056;2023-05-22T11:00:46;101473.50;;;26.61;64.28
69751;BME280;57335;52.288;6.056;2023-05-22T11:03:12;101460.03;;;26.75;62.38
69751;BME280;57335;52.288;6.056;2023-05-22T11:05:51;101471.59;;;26.90;60.33
69751;BME280;57335;52.288;6.056;2023-05-22T11:10:54;101460.44;;;26.82;57.92
69751;BME280;57335;52.288;6.056;2023-05-22T11:13:25;101463.72;;;26.65;57.68
69751;BME280;57335;52.288;6.056;2023-05-22T11:15:54;101453.78;;;26.66;57.87
69751;BME280;57335;52.288;6.056;2023-05-22T11:18:20;101453.97;;;26.83;59.08
69751;BME280;57335;52.288;6.056;2023-05-22T11:20:47;101450.94;;;26.99;58.48
69751;BME280;57335;52.288;6.056;2023-05-22T11:23:17;101441.28;;;26.98;56.92
69751;BME280;57335;52.288;6.056;2023-05-22T11:25:43;101448.44;;;27.16;60.75
69751;BME280;57335;52.288;6.056;2023-05-22T11:28:10;101454.66;;;27.39;59.57
69751;BME280;57335;52.288;6.056;2023-05-22T11:30:38;101444.50;;;27.59;56.66
69751;BME280;57335;52.288;6.056;2023-05-22T11:33:05;101448.78;;;27.82;55.92
69751;BME280;57335;52.288;6.056;2023-05-22T11:35:31;101439.56;;;27.83;56.51
69751;BME280;57335;52.288;6.056;2023-05-22T11:37:58;101434.00;;;27.80;55.71
69751;BME280;57335;52.288;6.056;2023-05-22T11:40:26;101435.97;;;27.88;54.33
69751;BME280;57335;52.288;6.056;2023-05-22T11:42:53;101430.78;;;27.92;55.97
69751;BME280;57335;52.288;6.056;2023-05-22T11:45:20;101424.31;;;28.01;54.76
69751;BME280;57335;52.288;6.056;2023-05-22T11:47:47;101423.84;;;27.99;55.73
69751;BME280;57335;52.288;6.056;2023-05-22T11:50:14;101424.50;;;28.05;54.74
69751;BME280;57335;52.288;6.056;2023-05-22T11:52:55;101421.63;;;28.01;57.73
69751;BME280;57335;52.288;6.056;2023-05-22T11:55:21;101420.69;;;28.06;57.27
69751;BME280;57335;52.288;6.056;2023-05-22T11:57:48;101418.25;;;28.27;52.97
69751;BME280;57335;52.288;6.056;2023-05-22T12:00:15;101416.63;;;28.57;54.38
69751;BME280;57335;52.288;6.056;2023-05-22T12:02:45;101406.09;;;28.47;51.49
69751;BME280;57335;52.288;6.056;2023-05-22T12:05:11;101418.41;;;28.71;50.90
69751;BME280;57335;52.288;6.056;2023-05-22T12:07:37;101409.97;;;28.72;51.57
69751;BME280;57335;52.288;6.056;2023-05-22T12:10:04;101407.59;;;28.71;52.64
69751;BME280;57335;52.288;6.056;2023-05-22T12:12:31;101409.97;;;28.72;52.44
69751;BME280;57335;52.288;6.056;2023-05-22T12:14:57;101412.34;;;28.65;50.59
69751;BME280;57335;52.288;6.056;2023-05-22T12:17:23;101416.19;;;28.81;50.38
69751;BME280;57335;52.288;6.056;2023-05-22T12:19:51;101401.56;;;28.82;50.26
69751;BME280;57335;52.288;6.056;2023-05-22T12:22:18;101407.13;;;28.86;51.22
69751;BME280;57335;52.288;6.056;2023-05-22T12:24:45;101408.59;;;29.01;50.95
69751;BME280;57335;52.288;6.056;2023-05-22T12:27:12;101407.78;;;29.09;49.41
69751;BME280;57335;52.288;6.056;2023-05-22T12:29:40;101408.56;;;29.10;50.28
69751;BME280;57335;52.288;6.056;2023-05-22T12:32:09;101406.03;;;29.04;49.73
69751;BME280;57335;52.288;6.056;2023-05-22T12:34:44;101407.31;;;28.81;50.32
69751;BME280;57335;52.288;6.056;2023-05-22T12:39:57;101399.66;;;28.66;49.37
69751;BME280;57335;52.288;6.056;2023-05-22T12:42:25;101405.31;;;28.47;49.81
69751;BME280;57335;52.288;6.056;2023-05-22T12:44:52;101410.19;;;28.44;52.26
69751;BME280;57335;52.288;6.056;2023-05-22T12:47:19;101396.00;;;28.53;51.18
69751;BME280;57335;52.288;6.056;2023-05-22T12:49:46;101395.03;;;28.57;51.18
69751;BME280;57335;52.288;6.056;2023-05-22T12:52:12;101397.25;;;28.64;50.17
69751;BME280;57335;52.288;6.056;2023-05-22T12:54:39;101397.28;;;28.73;51.47
69751;BME280;57335;52.288;6.056;2023-05-22T12:57:06;101392.03;;;28.59;49.58
69751;BME280;57335;52.288;6.056;2023-05-22T12:59:32;101398.44;;;28.40;51.76
69751;BME280;57335;52.288;6.056;2023-05-22T13:01:59;101398.84;;;28.16;52.02